sensor_id;sensor_type;location;lat;lon;timestamp;temperature;humidity
59303;DHT22;45074;52.764;6.896;2023-03-12T00:02:10;0.40;99.90
59303;DHT22;45074;52.764;6.896;2023-03-12T00:04:35;0.30;99.90
59303;DHT22;45074;52.764;6.896;2023-03-12T00:07:02;0.40;99.90
59303;DHT22;45074;52.764;6.896;2023-03-12T00:09:28;0.40;99.90
59303;DHT22;45074;52.764;6.896;2023-03-12T00:11:54;0.40;99.90
59303;DHT22;45074;52.764;6.896;2023-03-12T00:14:19;0.40;99.90
59303;DHT22;45074;52.764;6.896;2023-03-12T00:16:45;0.40;99.90
59303;DHT22;45074;52.764;6.896;2023-03-12T00:19:12;0.30;99.90
59303;DHT22;45074;52.764;6.896;2023-03-12T00:21:38;0.50;99.90
59303;DHT22;45074;52.764;6.896;2023-03-12T00:24:04;0.30;99.90
59303;DHT22;45074;52.764;6.896;2023-03-12T00:26:30;0.30;99.90
59303;DHT22;45074;52.764;6.896;2023-03-12T00:28:56;0.30;99.90
59303;DHT22;45074;52.764;6.896;2023-03-12T00:31:24;0.30;99.90
59303;DHT22;45074;52.764;6.896;2023-03-12T00:33:52;0.50;99.90
59303;DHT22;45074;52.764;6.896;2023-03-12T00:36:19;0.00;99.90
59303;DHT22;45074;52.764;6.896;2023-03-12T00:38:46;-1.10;99.90
59303;DHT22;45074;52.764;6.896;2023-03-12T00:48:30;0.00;99.90
59303;DHT22;45074;52.764;6.896;2023-03-12T00:50:56;0.00;99.90
59303;DHT22;45074;52.764;6.896;2023-03-12T00:53:21;0.00;99.90
59303;DHT22;45074;52.764;6.896;2023-03-12T00:55:47;0.20;99.90
59303;DHT22;45074;52.764;6.896;2023-03-12T00:58:12;0.00;99.90
59303;DHT22;45074;52.764;6.896;2023-03-12T01:00:38;-1.10;99.90
59303;DHT22;45074;52.764;6.896;2023-03-12T01:05:30;0.00;99.90
59303;DHT22;45074;52.764;6.896;2023-03-12T01:10:22;-0.40;99.90
59303;DHT22;45074;52.764;6.896;2023-03-12T01:15:15;-0.10;99.90
59303;DHT22;45074;52.764;6.896;2023-03-12T01:17:42;-0.40;99.90
59303;DHT22;45074;52.764;6.896;2023-03-12T01:20:09;-0.10;99.90
59303;DHT22;45074;52.764;6.896;2023-03-12T01:22:35;0.10;99.90
59303;DHT22;45074;52.764;6.896;2023-03-12T01:29:53;-0.10;99.90
59303;DHT22;45074;52.764;6.896;2023-03-12T01:32:20;0.10;99.90
59303;DHT22;45074;52.764;6.896;2023-03-12T01:37:12;0.00;99.90
59303;DHT22;45074;52.764;6.896;2023-03-12T01:42:04;0.10;99.90
59303;DHT22;45074;52.764;6.896;2023-03-12T01:44:30;-0.70;99.90
59303;DHT22;45074;52.764;6.896;2023-03-12T01:46:55;0.00;99.90
59303;DHT22;45074;52.764;6.896;2023-03-12T01:49:27;0.10;99.90
59303;DHT22;45074;52.764;6.896;2023-03-12T01:52:06;0.00;99.90
59303;DHT22;45074;52.764;6.896;2023-03-12T01:54:57;0.20;99.90
59303;DHT22;45074;52.764;6.896;2023-03-12T01:57:27;-1.10;99.90
59303;DHT22;45074;52.764;6.896;2023-03-12T01:59:59;0.30;99.90
59303;DHT22;45074;52.764;6.896;2023-03-12T02:02:26;0.30;99.90
59303;DHT22;45074;52.764;6.896;2023-03-12T02:07:49;0.20;99.90
59303;DHT22;45074;52.764;6.896;2023-03-12T02:10:15;0.20;99.90
59303;DHT22;45074;52.764;6.896;2023-03-12T02:15:07;0.30;99.90
59303;DHT22;45074;52.764;6.896;2023-03-12T02:17:34;-0.30;99.90
59303;DHT22;45074;52.764;6.896;2023-03-12T02:22:41;-1.40;99.90
59303;DHT22;45074;52.764;6.896;2023-03-12T02:25:28;0.10;99.90
59303;DHT22;45074;52.764;6.896;2023-03-12T02:27:58;0.30;99.90
59303;DHT22;45074;52.764;6.896;2023-03-12T02:30:27;0.10;99.90
59303;DHT22;45074;52.764;6.896;2023-03-12T02:32:54;0.50;99.90
59303;DHT22;45074;52.764;6.896;2023-03-12T02:35:20;-0.10;99.90
59303;DHT22;45074;52.764;6.896;2023-03-12T02:37:51;0.10;99.90
59303;DHT22;45074;52.764;6.896;2023-03-12T02:40:35;0.10;99.90
59303;DHT22;45074;52.764;6.896;2023-03-12T02:43:05;0.10;99.90
59303;DHT22;45074;52.764;6.896;2023-03-12T02:45:33;0.10;99.90
59303;DHT22;45074;52.764;6.896;2023-03-12T02:48:01;0.50;99.90
59303;DHT22;45074;52.764;6.896;2023-03-12T02:50:26;0.10;99.90
59303;DHT22;45074;52.764;6.896;2023-03-12T02:52:52;0.20;99.90
59303;DHT22;45074;52.764;6.896;2023-03-12T02:55:18;0.10;99.90
59303;DHT22;45074;52.764;6.896;2023-03-12T02:57:43;-0.60;99.90
59303;DHT22;45074;52.764;6.896;2023-03-12T03:00:10;0.10;99.90
59303;DHT22;45074;52.764;6.896;2023-03-12T03:02:37;0.10;99.90
59303;DHT22;45074;52.764;6.896;2023-03-12T03:05:03;-0.90;99.90
59303;DHT22;45074;52.764;6.896;2023-03-12T03:17:14;0.20;99.90
59303;DHT22;45074;52.764;6.896;2023-03-12T03:36:42;-0.80;99.90
59303;DHT22;45074;52.764;6.896;2023-03-12T03:39:07;0.40;99.90
59303;DHT22;45074;52.764;6.896;2023-03-12T03:43:59;0.10;99.90
59303;DHT22;45074;52.764;6.896;2023-03-12T03:56:12;0.30;99.90
59303;DHT22;45074;52.764;6.896;2023-03-12T04:03:32;0.50;99.90
59303;DHT22;45074;52.764;6.896;2023-03-12T04:05:59;0.40;99.90
59303;DHT22;45074;52.764;6.896;2023-03-12T04:08:25;0.40;99.90
59303;DHT22;45074;52.764;6.896;2023-03-12T04:10:51;0.30;99.90
59303;DHT22;45074;52.764;6.896;2023-03-12T04:13:18;0.40;99.90
59303;DHT22;45074;52.764;6.896;2023-03-12T04:15:48;0.40;99.90
59303;DHT22;45074;52.764;6.896;2023-03-12T04:30:25;0.40;99.90
59303;DHT22;45074;52.764;6.896;2023-03-12T04:32:52;-1.00;99.90
59303;DHT22;45074;52.764;6.896;2023-03-12T04:40:11;0.60;99.90
59303;DHT22;45074;52.764;6.896;2023-03-12T04:45:04;0.50;99.90
59303;DHT22;45074;52.764;6.896;2023-03-12T04:47:31;0.50;99.90
59303;DHT22;45074;52.764;6.896;2023-03-12T04:49:57;0.70;99.90
59303;DHT22;45074;52.764;6.896;2023-03-12T04:52:23;2.50;99.90
59303;DHT22;45074;52.764;6.896;2023-03-12T05:02:07;0.70;99.90
59303;DHT22;45074;52.764;6.896;2023-03-12T05:06:59;0.60;99.90
59303;DHT22;45074;52.764;6.896;2023-03-12T06:08:20;0.80;99.90
59303;DHT22;45074;52.764;6.896;2023-03-12T06:10:48;0.70;99.90
59303;DHT22;45074;52.764;6.896;2023-03-12T06:13:14;0.80;99.90
59303;DHT22;45074;52.764;6.896;2023-03-12T06:15:40;1.50;99.90
59303;DHT22;45074;52.764;6.896;2023-03-12T06:18:07;1.00;99.90
59303;DHT22;45074;52.764;6.896;2023-03-12T06:20:33;1.00;99.90
59303;DHT22;45074;52.764;6.896;2023-03-12T06:22:59;0.80;99.90
59303;DHT22;45074;52.764;6.896;2023-03-12T06:25:24;1.00;99.90
59303;DHT22;45074;52.764;6.896;2023-03-12T06:27:50;1.00;99.90
59303;DHT22;45074;52.764;6.896;2023-03-12T06:32:42;-0.10;99.90
59303;DHT22;45074;52.764;6.896;2023-03-12T06:35:07;0.90;99.90
59303;DHT22;45074;52.764;6.896;2023-03-12T06:37:33;0.80;99.90
59303;DHT22;45074;52.764;6.896;2023-03-12T06:39:59;1.10;99.90
59303;DHT22;45074;52.764;6.896;2023-03-12T06:42:25;2.20;99.90
59303;DHT22;45074;52.764;6.896;2023-03-12T06:44:51;1.30;99.90
59303;DHT22;45074;52.764;6.896;2023-03-12T06:47:16;1.30;99.90
59303;DHT22;45074;52.764;6.896;2023-03-12T06:49:42;1.10;99.90
59303;DHT22;45074;52.764;6.896;2023-03-12T06:52:08;1.50;99.90
59303;DHT22;45074;52.764;6.896;2023-03-12T09:55:42;1.60;99.90
59303;DHT22;45074;52.764;6.896;2023-03-12T09:58:27;1.60;99.90
59303;DHT22;45074;52.764;6.896;2023-03-12T10:01:09;1.70;99.90
59303;DHT22;45074;52.764;6.896;2023-03-12T10:04:06;0.80;99.90
59303;DHT22;45074;52.764;6.896;2023-03-12T10:07:01;1.70;99.90
59303;DHT22;45074;52.764;6.896;2023-03-12T10:13:12;1.70;99.90
59303;DHT22;45074;52.764;6.896;2023-03-12T10:16:01;0.30;99.90
59303;DHT22;45074;52.764;6.896;2023-03-12T10:26:43;2.40;99.90
59303;DHT22;45074;52.764;6.896;2023-03-12T10:29:33;2.20;99.90
59303;DHT22;45074;52.764;6.896;2023-03-12T10:34:50;1.90;99.90
59303;DHT22;45074;52.764;6.896;2023-03-12T10:37:27;2.50;99.90
59303;DHT22;45074;52.764;6.896;2023-03-12T10:39:53;2.00;99.90
59303;DHT22;45074;52.764;6.896;2023-03-12T10:42:29;2.10;99.90
59303;DHT22;45074;52.764;6.896;2023-03-12T10:45:00;2.40;99.90
59303;DHT22;45074;52.764;6.896;2023-03-12T10:47:35;3.70;99.90
59303;DHT22;45074;52.764;6.896;2023-03-12T10:50:16;2.30;99.90
59303;DHT22;45074;52.764;6.896;2023-03-12T10:52:46;2.50;99.90
59303;DHT22;45074;52.764;6.896;2023-03-12T11:00:20;2.40;99.90
59303;DHT22;45074;52.764;6.896;2023-03-12T11:05:48;0.80;99.90
59303;DHT22;45074;52.764;6.896;2023-03-12T11:08:23;2.50;99.90
59303;DHT22;45074;52.764;6.896;2023-03-12T11:10:52;2.50;99.90
59303;DHT22;45074;52.764;6.896;2023-03-12T11:13:36;2.60;99.90
59303;DHT22;45074;52.764;6.896;2023-03-12T11:21:22;2.70;99.90
59303;DHT22;45074;52.764;6.896;2023-03-12T11:26:27;3.10;99.90
59303;DHT22;45074;52.764;6.896;2023-03-12T11:29:26;2.90;99.90
59303;DHT22;45074;52.764;6.896;2023-03-12T11:34:36;3.00;99.90
59303;DHT22;45074;52.764;6.896;2023-03-12T11:37:24;3.10;99.90
59303;DHT22;45074;52.764;6.896;2023-03-12T11:40:04;3.50;99.90
59303;DHT22;45074;52.764;6.896;2023-03-12T11:42:59;2.50;99.90
59303;DHT22;45074;52.764;6.896;2023-03-12T11:45:40;3.30;99.90
59303;DHT22;45074;52.764;6.896;2023-03-12T11:48:24;3.30;99.90
59303;DHT22;45074;52.764;6.896;2023-03-12T11:51:09;3.40;99.90
59303;DHT22;45074;52.764;6.896;2023-03-12T11:56:52;3.60;99.90
59303;DHT22;45074;52.764;6.896;2023-03-12T12:02:33;3.80;99.90
59303;DHT22;45074;52.764;6.896;2023-03-12T12:16:13;3.80;99.90
59303;DHT22;45074;52.764;6.896;2023-03-12T12:19:05;4.30;99.90
59303;DHT22;45074;52.764;6.896;2023-03-12T12:21:57;4.40;99.90
59303;DHT22;45074;52.764;6.896;2023-03-12T12:24:42;4.50;99.90
59303;DHT22;45074;52.764;6.896;2023-03-12T12:32:33;4.70;99.90
59303;DHT22;45074;52.764;6.896;2023-03-12T12:35:07;4.70;99.90
59303;DHT22;45074;52.764;6.896;2023-03-12T12:40:26;4.90;99.90
59303;DHT22;45074;52.764;6.896;2023-03-12T12:45:59;5.70;99.90
59303;DHT22;45074;52.764;6.896;2023-03-12T12:48:39;5.20;99.90
59303;DHT22;45074;52.764;6.896;2023-03-12T12:51:07;5.40;99.90
59303;DHT22;45074;52.764;6.896;2023-03-12T12:59:01;5.40;99.90
59303;DHT22;45074;52.764;6.896;2023-03-12T13:01:30;7.00;99.90
59303;DHT22;45074;52.764;6.896;2023-03-12T13:04:02;5.70;99.90
59303;DHT22;45074;52.764;6.896;2023-03-12T13:06:52;6.10;99.90
59303;DHT22;45074;52.764;6.896;2023-03-12T13:09:21;5.90;99.90
59303;DHT22;45074;52.764;6.896;2023-03-12T13:12:51;6.00;99.90
59303;DHT22;45074;52.764;6.896;2023-03-12T13:14:52;6.10;99.90
59303;DHT22;45074;52.764;6.896;2023-03-12T13:17:58;6.10;99.90
59303;DHT22;45074;52.764;6.896;2023-03-12T13:23:29;6.20;99.90
59303;DHT22;45074;52.764;6.896;2023-03-12T13:36:56;6.50;99.90
59303;DHT22;45074;52.764;6.896;2023-03-12T13:39:35;6.40;99.90
59303;DHT22;45074;52.764;6.896;2023-03-12T13:44:51;6.60;99.90
59303;DHT22;45074;52.764;6.896;2023-03-12T13:47:27;6.60;99.90
59303;DHT22;45074;52.764;6.896;2023-03-12T13:50:11;6.70;99.90
59303;DHT22;45074;52.764;6.896;2023-03-12T13:57:46;6.90;99.90
59303;DHT22;45074;52.764;6.896;2023-03-12T14:00:24;7.00;99.90
59303;DHT22;45074;52.764;6.896;2023-03-12T14:05:24;7.10;99.90
59303;DHT22;45074;52.764;6.896;2023-03-12T14:16:18;7.40;99.90
59303;DHT22;45074;52.764;6.896;2023-03-12T14:18:46;7.50;99.90
59303;DHT22;45074;52.764;6.896;2023-03-12T14:21:15;7.60;99.90
59303;DHT22;45074;52.764;6.896;2023-03-12T14:23:56;7.70;99.90
59303;DHT22;45074;52.764;6.896;2023-03-12T14:26:25;8.10;99.90
59303;DHT22;45074;52.764;6.896;2023-03-12T14:29:03;7.80;99.90
59303;DHT22;45074;52.764;6.896;2023-03-12T14:31:31;7.80;99.90
59303;DHT22;45074;52.764;6.896;2023-03-12T14:34:07;7.90;99.90
59303;DHT22;45074;52.764;6.896;2023-03-12T14:36:45;7.90;99.90
59303;DHT22;45074;52.764;6.896;2023-03-12T14:39:42;8.10;99.90
59303;DHT22;45074;52.764;6.896;2023-03-12T14:42:08;7.90;99.90
59303;DHT22;45074;52.764;6.896;2023-03-12T14:44:36;7.90;99.90
59303;DHT22;45074;52.764;6.896;2023-03-12T14:47:07;9.20;99.90
59303;DHT22;45074;52.764;6.896;2023-03-12T14:54:36;8.10;99.90
59303;DHT22;45074;52.764;6.896;2023-03-12T14:57:05;8.10;99.90
59303;DHT22;45074;52.764;6.896;2023-03-12T14:59:33;7.90;99.90
59303;DHT22;45074;52.764;6.896;2023-03-12T15:02:10;8.10;99.90
59303;DHT22;45074;52.764;6.896;2023-03-12T15:04:38;10.10;99.90
59303;DHT22;45074;52.764;6.896;2023-03-12T15:07:05;8.10;99.90
59303;DHT22;45074;52.764;6.896;2023-03-12T15:09:34;8.20;99.90
59303;DHT22;45074;52.764;6.896;2023-03-12T15:12:06;8.20;99.90
59303;DHT22;45074;52.764;6.896;2023-03-12T15:14:36;8.00;99.90
59303;DHT22;45074;52.764;6.896;2023-03-12T15:17:04;8.20;99.90
59303;DHT22;45074;52.764;6.896;2023-03-12T15:19:34;8.30;99.90
59303;DHT22;45074;52.764;6.896;2023-03-12T15:22:00;8.80;99.90
59303;DHT22;45074;52.764;6.896;2023-03-12T15:24:29;8.20;99.90
59303;DHT22;45074;52.764;6.896;2023-03-12T18:10:17;8.20;99.90
59303;DHT22;45074;52.764;6.896;2023-03-12T18:12:43;8.10;99.90
59303;DHT22;45074;52.764;6.896;2023-03-12T18:15:11;8.20;99.90
59303;DHT22;45074;52.764;6.896;2023-03-12T18:17:38;7.90;99.90
59303;DHT22;45074;52.764;6.896;2023-03-12T18:20:04;8.00;99.90
59303;DHT22;45074;52.764;6.896;2023-03-12T18:22:34;8.20;99.90
59303;DHT22;45074;52.764;6.896;2023-03-12T18:25:00;8.40;99.90
59303;DHT22;45074;52.764;6.896;2023-03-12T18:27:26;8.10;99.90
59303;DHT22;45074;52.764;6.896;2023-03-12T18:29:51;8.10;99.90
59303;DHT22;45074;52.764;6.896;2023-03-12T18:32:17;8.10;99.90
59303;DHT22;45074;52.764;6.896;2023-03-12T18:34:43;8.30;99.90
59303;DHT22;45074;52.764;6.896;2023-03-12T18:37:08;8.20;99.90
